sensor_id;sensor_type;location;lat;lon;timestamp;noise_LAeq;noise_LA_min;noise_LA_max;noise_LA01;noise_LA95
45964;Laerm;31671;48.092;11.842;2023-09-12T00:02:06;29.87;28.05;33.10;;
45964;Laerm;31671;48.092;11.842;2023-09-12T00:04:32;29.89;28.19;35.71;;
45964;Laerm;31671;48.092;11.842;2023-09-12T00:06:57;29.78;27.99;38.13;;
45964;Laerm;31671;48.092;11.842;2023-09-12T00:09:23;29.56;27.75;31.87;;
45964;Laerm;31671;48.092;11.842;2023-09-12T00:11:49;29.55;28.08;34.42;;
45964;Laerm;31671;48.092;11.842;2023-09-12T00:14:15;30.43;28.22;42.81;;
45964;Laerm;31671;48.092;11.842;2023-09-12T00:16:43;30.10;28.29;33.68;;
45964;Laerm;31671;48.092;11.842;2023-09-12T00:19:09;29.89;28.12;36.32;;
45964;Laerm;31671;48.092;11.842;2023-09-12T00:21:35;29.82;28.11;35.08;;
45964;Laerm;31671;48.092;11.842;2023-09-12T00:24:00;30.58;28.07;41.24;;
45964;Laerm;31671;48.092;11.842;2023-09-12T00:26:26;30.18;28.40;37.07;;
45964;Laerm;31671;48.092;11.842;2023-09-12T00:28:52;30.05;28.24;35.10;;
45964;Laerm;31671;48.092;11.842;2023-09-12T00:31:18;29.82;28.34;34.43;;
45964;Laerm;31671;48.092;11.842;2023-09-12T00:33:43;29.80;28.28;32.24;;
45964;Laerm;31671;48.092;11.842;2023-09-12T00:36:09;30.20;28.39;35.19;;
45964;Laerm;31671;48.092;11.842;2023-09-12T00:38:35;30.27;28.58;34.88;;
45964;Laerm;31671;48.092;11.842;2023-09-12T00:41:00;30.11;28.27;33.98;;
45964;Laerm;31671;48.092;11.842;2023-09-12T00:43:26;30.15;28.41;35.31;;
45964;Laerm;31671;48.092;11.842;2023-09-12T00:45:52;31.61;28.38;37.77;;
45964;Laerm;31671;48.092;11.842;2023-09-12T00:48:18;29.91;28.17;33.38;;
45964;Laerm;31671;48.092;11.842;2023-09-12T00:50:44;30.06;28.22;33.38;;
45964;Laerm;31671;48.092;11.842;2023-09-12T00:53:11;29.88;28.15;34.28;;
45964;Laerm;31671;48.092;11.842;2023-09-12T00:55:38;30.41;28.24;36.18;;
45964;Laerm;31671;48.092;11.842;2023-09-12T00:58:06;29.98;27.99;35.34;;
45964;Laerm;31671;48.092;11.842;2023-09-12T01:00:31;29.99;28.27;33.25;;
45964;Laerm;31671;48.092;11.842;2023-09-12T01:02:57;32.07;28.22;39.88;;
45964;Laerm;31671;48.092;11.842;2023-09-12T01:05:23;29.77;27.87;33.31;;
45964;Laerm;31671;48.092;11.842;2023-09-12T01:07:49;31.70;28.05;40.22;;
45964;Laerm;31671;48.092;11.842;2023-09-12T01:10:15;31.61;28.14;39.54;;
45964;Laerm;31671;48.092;11.842;2023-09-12T01:12:40;31.04;28.08;48.01;;
45964;Laerm;31671;48.092;11.842;2023-09-12T01:15:06;29.72;27.91;35.59;;
45964;Laerm;31671;48.092;11.842;2023-09-12T01:17:32;29.72;28.00;38.57;;
45964;Laerm;31671;48.092;11.842;2023-09-12T01:19:57;31.31;28.29;42.74;;
45964;Laerm;31671;48.092;11.842;2023-09-12T01:27:56;29.85;28.01;33.80;;
45964;Laerm;31671;48.092;11.842;2023-09-12T01:30:25;29.72;28.02;34.32;;
45964;Laerm;31671;48.092;11.842;2023-09-12T01:32:52;29.50;27.78;33.67;;
45964;Laerm;31671;48.092;11.842;2023-09-12T01:35:19;30.21;28.00;33.58;;
45964;Laerm;31671;48.092;11.842;2023-09-12T01:37:44;29.71;28.08;33.45;;
45964;Laerm;31671;48.092;11.842;2023-09-12T01:40:10;30.79;28.14;36.41;;
45964;Laerm;31671;48.092;11.842;2023-09-12T01:42:36;29.58;28.10;31.85;;
45964;Laerm;31671;48.092;11.842;2023-09-12T01:45:02;29.82;28.15;34.90;;
45964;Laerm;31671;48.092;11.842;2023-09-12T01:47:29;30.40;28.16;36.10;;
45964;Laerm;31671;48.092;11.842;2023-09-12T01:49:55;29.64;27.96;32.64;;
45964;Laerm;31671;48.092;11.842;2023-09-12T01:52:21;29.65;27.95;36.53;;
45964;Laerm;31671;48.092;11.842;2023-09-12T01:54:47;30.17;28.22;40.43;;
45964;Laerm;31671;48.092;11.842;2023-09-12T01:57:14;30.92;27.76;38.26;;
45964;Laerm;31671;48.092;11.842;2023-09-12T01:59:40;29.88;28.28;33.27;;
45964;Laerm;31671;48.092;11.842;2023-09-12T02:02:06;30.78;27.87;37.19;;
45964;Laerm;31671;48.092;11.842;2023-09-12T02:04:31;29.78;28.17;32.57;;
45964;Laerm;31671;48.092;11.842;2023-09-12T02:06:57;29.70;27.96;32.27;;
45964;Laerm;31671;48.092;11.842;2023-09-12T02:09:23;29.56;28.03;31.36;;
45964;Laerm;31671;48.092;11.842;2023-09-12T02:11:48;29.63;28.20;31.84;;
45964;Laerm;31671;48.092;11.842;2023-09-12T02:14:14;30.34;28.28;34.16;;
45964;Laerm;31671;48.092;11.842;2023-09-12T02:16:40;29.72;28.04;32.24;;
45964;Laerm;31671;48.092;11.842;2023-09-12T02:19:06;29.72;28.05;32.61;;
45964;Laerm;31671;48.092;11.842;2023-09-12T02:21:31;29.66;28.22;31.62;;
45964;Laerm;31671;48.092;11.842;2023-09-12T02:23:57;31.15;28.07;37.54;;
45964;Laerm;31671;48.092;11.842;2023-09-12T02:26:23;29.78;27.91;35.67;;
45964;Laerm;31671;48.092;11.842;2023-09-12T02:28:49;32.05;28.12;41.62;;
45964;Laerm;31671;48.092;11.842;2023-09-12T02:31:15;29.63;27.94;31.49;;
45964;Laerm;31671;48.092;11.842;2023-09-12T02:33:40;29.58;28.04;31.46;;
45964;Laerm;31671;48.092;11.842;2023-09-12T02:36:06;30.03;28.06;33.98;;
45964;Laerm;31671;48.092;11.842;2023-09-12T02:38:32;29.62;28.04;32.23;;
45964;Laerm;31671;48.092;11.842;2023-09-12T02:40:58;29.73;28.18;32.19;;
45964;Laerm;31671;48.092;11.842;2023-09-12T02:43:24;29.73;28.04;32.43;;
45964;Laerm;31671;48.092;11.842;2023-09-12T02:45:49;29.99;28.30;33.35;;
45964;Laerm;31671;48.092;11.842;2023-09-12T02:48:15;29.84;28.21;33.07;;
45964;Laerm;31671;48.092;11.842;2023-09-12T02:50:41;29.72;28.08;32.09;;
45964;Laerm;31671;48.092;11.842;2023-09-12T02:53:07;29.74;27.98;32.42;;
45964;Laerm;31671;48.092;11.842;2023-09-12T02:55:32;29.69;28.28;31.77;;
45964;Laerm;31671;48.092;11.842;2023-09-12T02:57:58;29.90;28.20;34.39;;
45964;Laerm;31671;48.092;11.842;2023-09-12T03:00:24;29.84;28.27;32.28;;
45964;Laerm;31671;48.092;11.842;2023-09-12T03:02:50;29.83;28.17;33.57;;
45964;Laerm;31671;48.092;11.842;2023-09-12T03:05:15;29.87;27.98;32.87;;
45964;Laerm;31671;48.092;11.842;2023-09-12T03:07:41;29.56;28.18;33.06;;
45964;Laerm;31671;48.092;11.842;2023-09-12T03:10:07;29.52;27.71;32.35;;
45964;Laerm;31671;48.092;11.842;2023-09-12T03:12:33;29.51;28.08;32.15;;
45964;Laerm;31671;48.092;11.842;2023-09-12T03:14:58;29.58;28.03;33.00;;
45964;Laerm;31671;48.092;11.842;2023-09-12T03:17:24;29.70;27.94;33.12;;
45964;Laerm;31671;48.092;11.842;2023-09-12T03:19:50;29.97;28.29;51.82;;
45964;Laerm;31671;48.092;11.842;2023-09-12T03:22:16;29.71;28.27;32.44;;
45964;Laerm;31671;48.092;11.842;2023-09-12T03:24:42;30.01;28.26;36.22;;
45964;Laerm;31671;48.092;11.842;2023-09-12T03:27:08;30.08;28.04;36.34;;
45964;Laerm;31671;48.092;11.842;2023-09-12T03:29:33;30.05;28.09;37.20;;
45964;Laerm;31671;48.092;11.842;2023-09-12T03:31:59;30.09;28.25;34.21;;
45964;Laerm;31671;48.092;11.842;2023-09-12T03:34:25;30.00;28.16;34.51;;
45964;Laerm;31671;48.092;11.842;2023-09-12T03:36:50;47.70;27.98;83.83;;
45964;Laerm;31671;48.092;11.842;2023-09-12T03:39:16;29.69;27.89;39.79;;
45964;Laerm;31671;48.092;11.842;2023-09-12T03:41:42;30.51;28.11;59.13;;
45964;Laerm;31671;48.092;11.842;2023-09-12T03:44:07;29.71;28.14;32.13;;
45964;Laerm;31671;48.092;11.842;2023-09-12T03:46:33;29.71;27.93;35.26;;
45964;Laerm;31671;48.092;11.842;2023-09-12T03:48:59;29.82;27.96;33.02;;
45964;Laerm;31671;48.092;11.842;2023-09-12T03:51:25;30.86;27.80;37.17;;
45964;Laerm;31671;48.092;11.842;2023-09-12T03:53:50;30.90;28.26;36.18;;
45964;Laerm;31671;48.092;11.842;2023-09-12T03:56:16;31.16;28.50;40.51;;
45964;Laerm;31671;48.092;11.842;2023-09-12T03:58:42;31.71;28.37;61.55;;
45964;Laerm;31671;48.092;11.842;2023-09-12T04:01:08;31.32;28.61;37.34;;
45964;Laerm;31671;48.092;11.842;2023-09-12T04:03:34;30.23;28.23;34.79;;
45964;Laerm;31671;48.092;11.842;2023-09-12T04:05:59;29.61;27.88;31.75;;
45964;Laerm;31671;48.092;11.842;2023-09-12T04:08:28;29.76;28.14;32.67;;
45964;Laerm;31671;48.092;11.842;2023-09-12T04:10:54;30.08;28.02;33.24;;
45964;Laerm;31671;48.092;11.842;2023-09-12T04:13:20;29.65;27.91;32.75;;
45964;Laerm;31671;48.092;11.842;2023-09-12T04:15:45;29.50;27.96;32.00;;
45964;Laerm;31671;48.092;11.842;2023-09-12T04:18:11;29.58;28.15;31.71;;
45964;Laerm;31671;48.092;11.842;2023-09-12T04:20:37;29.67;27.97;33.69;;
45964;Laerm;31671;48.092;11.842;2023-09-12T04:23:03;29.68;28.21;37.10;;
45964;Laerm;31671;48.092;11.842;2023-09-12T04:25:29;29.84;28.04;39.79;;
45964;Laerm;31671;48.092;11.842;2023-09-12T04:27:55;29.77;28.33;33.75;;
45964;Laerm;31671;48.092;11.842;2023-09-12T04:30:20;30.04;28.23;37.60;;
45964;Laerm;31671;48.092;11.842;2023-09-12T04:32:46;30.04;28.15;33.11;;
45964;Laerm;31671;48.092;11.842;2023-09-12T04:35:12;29.61;28.23;32.24;;
45964;Laerm;31671;48.092;11.842;2023-09-12T04:37:37;29.65;28.07;34.33;;
45964;Laerm;31671;48.092;11.842;2023-09-12T04:40:03;29.62;27.69;32.67;;
45964;Laerm;31671;48.092;11.842;2023-09-12T04:42:29;29.74;28.14;32.98;;
45964;Laerm;31671;48.092;11.842;2023-09-12T04:44:55;29.63;28.27;32.17;;
45964;Laerm;31671;48.092;11.842;2023-09-12T04:47:21;30.04;28.15;33.81;;
45964;Laerm;31671;48.092;11.842;2023-09-12T04:49:46;30.00;28.12;33.77;;
45964;Laerm;31671;48.092;11.842;2023-09-12T04:52:12;29.51;27.98;31.15;;
45964;Laerm;31671;48.092;11.842;2023-09-12T04:54:38;29.74;28.33;31.61;;
45964;Laerm;31671;48.092;11.842;2023-09-12T04:57:04;29.71;28.08;32.11;;
45964;Laerm;31671;48.092;11.842;2023-09-12T04:59:30;29.87;28.00;33.88;;
45964;Laerm;31671;48.092;11.842;2023-09-12T05:01:55;29.83;28.30;32.58;;
45964;Laerm;31671;48.092;11.842;2023-09-12T05:04:21;29.93;28.40;34.36;;
45964;Laerm;31671;48.092;11.842;2023-09-12T05:06:47;29.71;28.14;32.74;;
45964;Laerm;31671;48.092;11.842;2023-09-12T05:09:12;30.28;28.26;35.74;;
45964;Laerm;31671;48.092;11.842;2023-09-12T05:11:38;30.05;28.04;38.15;;
45964;Laerm;31671;48.092;11.842;2023-09-12T05:14:04;30.16;27.92;38.05;;
45964;Laerm;31671;48.092;11.842;2023-09-12T05:16:30;29.52;27.77;33.76;;
45964;Laerm;31671;48.092;11.842;2023-09-12T05:18:55;30.01;27.96;39.12;;
45964;Laerm;31671;48.092;11.842;2023-09-12T05:21:21;30.57;28.18;44.66;;
45964;Laerm;31671;48.092;11.842;2023-09-12T05:23:47;29.50;27.94;32.27;;
45964;Laerm;31671;48.092;11.842;2023-09-12T05:26:13;29.66;28.06;32.59;;
45964;Laerm;31671;48.092;11.842;2023-09-12T05:28:39;29.41;27.94;35.93;;
45964;Laerm;31671;48.092;11.842;2023-09-12T05:31:04;29.53;27.93;37.73;;
45964;Laerm;31671;48.092;11.842;2023-09-12T05:33:31;30.17;28.36;40.74;;
45964;Laerm;31671;48.092;11.842;2023-09-12T05:35:57;29.79;28.31;39.44;;
45964;Laerm;31671;48.092;11.842;2023-09-12T05:38:23;31.57;28.48;38.77;;
45964;Laerm;31671;48.092;11.842;2023-09-12T05:40:49;29.85;28.28;37.86;;
45964;Laerm;31671;48.092;11.842;2023-09-12T05:43:15;29.79;28.37;32.68;;
45964;Laerm;31671;48.092;11.842;2023-09-12T05:45:41;30.29;28.45;40.93;;
45964;Laerm;31671;48.092;11.842;2023-09-12T05:48:07;30.36;28.36;40.62;;
45964;Laerm;31671;48.092;11.842;2023-09-12T05:50:33;30.40;28.46;37.06;;
45964;Laerm;31671;48.092;11.842;2023-09-12T05:52:59;31.76;28.27;38.41;;
45964;Laerm;31671;48.092;11.842;2023-09-12T05:55:24;29.85;28.36;35.99;;
45964;Laerm;31671;48.092;11.842;2023-09-12T05:57:50;29.87;28.40;36.19;;
45964;Laerm;31671;48.092;11.842;2023-09-12T06:00:16;30.04;28.60;34.25;;
45964;Laerm;31671;48.092;11.842;2023-09-12T06:02:42;29.96;28.54;35.94;;
45964;Laerm;31671;48.092;11.842;2023-09-12T06:05:08;30.07;28.24;37.96;;
45964;Laerm;31671;48.092;11.842;2023-09-12T06:07:34;29.93;28.51;35.66;;
45964;Laerm;31671;48.092;11.842;2023-09-12T06:10:00;29.86;28.48;36.61;;
45964;Laerm;31671;48.092;11.842;2023-09-12T06:12:25;29.97;28.52;36.83;;
45964;Laerm;31671;48.092;11.842;2023-09-12T06:14:51;29.87;28.52;35.60;;
45964;Laerm;31671;48.092;11.842;2023-09-12T06:17:17;30.46;28.40;36.05;;
45964;Laerm;31671;48.092;11.842;2023-09-12T06:19:42;29.96;28.58;36.21;;
45964;Laerm;31671;48.092;11.842;2023-09-12T06:22:08;29.85;28.50;34.78;;
45964;Laerm;31671;48.092;11.842;2023-09-12T06:24:34;30.41;28.48;35.68;;
45964;Laerm;31671;48.092;11.842;2023-09-12T06:27:02;29.84;28.44;34.46;;
45964;Laerm;31671;48.092;11.842;2023-09-12T06:29:28;29.81;28.45;35.53;;
45964;Laerm;31671;48.092;11.842;2023-09-12T06:31:54;29.72;28.31;31.19;;
45964;Laerm;31671;48.092;11.842;2023-09-12T06:34:19;30.01;28.49;33.09;;
45964;Laerm;31671;48.092;11.842;2023-09-12T06:36:45;30.13;28.49;34.79;;
45964;Laerm;31671;48.092;11.842;2023-09-12T06:39:11;29.94;28.29;37.66;;
45964;Laerm;31671;48.092;11.842;2023-09-12T06:41:36;30.49;28.38;36.55;;
45964;Laerm;31671;48.092;11.842;2023-09-12T06:44:02;30.21;28.24;36.68;;
45964;Laerm;31671;48.092;11.842;2023-09-12T06:46:28;30.09;28.35;35.58;;
45964;Laerm;31671;48.092;11.842;2023-09-12T06:48:53;29.67;28.10;35.45;;
45964;Laerm;31671;48.092;11.842;2023-09-12T06:51:22;29.66;28.35;35.67;;
45964;Laerm;31671;48.092;11.842;2023-09-12T06:53:48;29.87;28.00;35.63;;
45964;Laerm;31671;48.092;11.842;2023-09-12T06:56:14;29.71;28.17;34.20;;
45964;Laerm;31671;48.092;11.842;2023-09-12T06:58:40;29.53;28.25;35.05;;
45964;Laerm;31671;48.092;11.842;2023-09-12T07:01:05;29.49;28.29;36.07;;
45964;Laerm;31671;48.092;11.842;2023-09-12T07:03:32;29.54;28.28;36.98;;
45964;Laerm;31671;48.092;11.842;2023-09-12T07:05:57;29.53;28.15;36.08;;
45964;Laerm;31671;48.092;11.842;2023-09-12T07:08:23;29.58;28.14;36.74;;
45964;Laerm;31671;48.092;11.842;2023-09-12T07:10:49;29.71;28.37;37.52;;
45964;Laerm;31671;48.092;11.842;2023-09-12T07:13:14;29.53;28.25;37.36;;
45964;Laerm;31671;48.092;11.842;2023-09-12T07:15:40;29.46;28.18;37.58;;
45964;Laerm;31671;48.092;11.842;2023-09-12T07:18:06;29.43;28.09;35.27;;
45964;Laerm;31671;48.092;11.842;2023-09-12T07:20:35;29.31;28.00;36.34;;
45964;Laerm;31671;48.092;11.842;2023-09-12T07:23:00;29.28;27.83;36.94;;
45964;Laerm;31671;48.092;11.842;2023-09-12T07:25:26;29.21;27.71;36.44;;
45964;Laerm;31671;48.092;11.842;2023-09-12T07:27:52;29.35;27.80;36.56;;
45964;Laerm;31671;48.092;11.842;2023-09-12T07:30:18;29.23;27.81;30.52;;
45964;Laerm;31671;48.092;11.842;2023-09-12T07:32:44;29.25;27.92;40.49;;
45964;Laerm;31671;48.092;11.842;2023-09-12T07:35:09;29.28;28.00;42.33;;
45964;Laerm;31671;48.092;11.842;2023-09-12T07:37:35;29.22;27.99;31.06;;
45964;Laerm;31671;48.092;11.842;2023-09-12T07:40:01;29.23;28.01;32.02;;
45964;Laerm;31671;48.092;11.842;2023-09-12T07:42:27;29.25;27.90;36.05;;
45964;Laerm;31671;48.092;11.842;2023-09-12T07:44:52;29.24;27.96;36.57;;
45964;Laerm;31671;48.092;11.842;2023-09-12T07:47:18;29.24;27.68;36.34;;
45964;Laerm;31671;48.092;11.842;2023-09-12T07:49:44;29.16;27.87;31.97;;
45964;Laerm;31671;48.092;11.842;2023-09-12T07:52:10;29.11;27.70;35.79;;
45964;Laerm;31671;48.092;11.842;2023-09-12T07:54:35;29.06;27.73;36.78;;
45964;Laerm;31671;48.092;11.842;2023-09-12T07:57:01;29.15;27.76;34.50;;
45964;Laerm;31671;48.092;11.842;2023-09-12T07:59:27;29.13;27.79;36.15;;
45964;Laerm;31671;48.092;11.842;2023-09-12T08:01:52;29.02;27.65;35.23;;
45964;Laerm;31671;48.092;11.842;2023-09-12T08:04:18;29.34;27.87;32.41;;
45964;Laerm;31671;48.092;11.842;2023-09-12T08:06:44;29.05;27.89;31.59;;
45964;Laerm;31671;48.092;11.842;2023-09-12T08:09:09;29.06;27.86;32.00;;
45964;Laerm;31671;48.092;11.842;2023-09-12T08:11:35;29.05;27.76;36.74;;
45964;Laerm;31671;48.092;11.842;2023-09-12T08:14:01;29.25;27.81;35.58;;
45964;Laerm;31671;48.092;11.842;2023-09-12T08:16:27;29.01;27.73;30.53;;
45964;Laerm;31671;48.092;11.842;2023-09-12T08:18:52;29.07;27.73;32.56;;
45964;Laerm;31671;48.092;11.842;2023-09-12T08:21:18;29.03;27.54;30.87;;
45964;Laerm;31671;48.092;11.842;2023-09-12T08:23:44;29.06;27.83;40.32;;
45964;Laerm;31671;48.092;11.842;2023-09-12T08:26:10;29.08;27.80;40.02;;
45964;Laerm;31671;48.092;11.842;2023-09-12T08:28:35;28.98;27.57;30.26;;
45964;Laerm;31671;48.092;11.842;2023-09-12T08:31:01;29.18;27.71;40.34;;
45964;Laerm;31671;48.092;11.842;2023-09-12T08:33:27;29.30;27.55;40.87;;
45964;Laerm;31671;48.092;11.842;2023-09-12T08:35:53;28.96;27.76;38.14;;
45964;Laerm;31671;48.092;11.842;2023-09-12T08:38:18;29.04;27.66;32.04;;
45964;Laerm;31671;48.092;11.842;2023-09-12T08:40:50;28.97;27.51;30.47;;
45964;Laerm;31671;48.092;11.842;2023-09-12T08:43:16;29.01;27.68;32.37;;
45964;Laerm;31671;48.092;11.842;2023-09-12T08:45:42;28.95;27.43;33.04;;
45964;Laerm;31671;48.092;11.842;2023-09-12T08:48:07;28.90;27.72;31.25;;
45964;Laerm;31671;48.092;11.842;2023-09-12T08:50:33;29.10;27.65;36.79;;
45964;Laerm;31671;48.092;11.842;2023-09-12T08:52:59;28.96;27.69;30.98;;
45964;Laerm;31671;48.092;11.842;2023-09-12T08:55:24;29.18;27.73;37.31;;
45964;Laerm;31671;48.092;11.842;2023-09-12T08:57:51;29.11;27.72;32.72;;
45964;Laerm;31671;48.092;11.842;2023-09-12T09:00:17;29.36;27.60;36.34;;
45964;Laerm;31671;48.092;11.842;2023-09-12T09:02:43;29.07;27.79;35.92;;
45964;Laerm;31671;48.092;11.842;2023-09-12T09:05:09;29.23;27.65;33.71;;
45964;Laerm;31671;48.092;11.842;2023-09-12T09:07:39;29.20;27.34;40.19;;
45964;Laerm;31671;48.092;11.842;2023-09-12T09:10:06;29.10;27.76;37.40;;
45964;Laerm;31671;48.092;11.842;2023-09-12T09:12:32;29.03;27.58;38.02;;
45964;Laerm;31671;48.092;11.842;2023-09-12T09:14:57;28.93;27.50;34.50;;
45964;Laerm;31671;48.092;11.842;2023-09-12T09:17:23;28.95;27.41;38.72;;
45964;Laerm;31671;48.092;11.842;2023-09-12T09:19:49;29.11;27.72;31.57;;
45964;Laerm;31671;48.092;11.842;2023-09-12T09:22:15;29.01;27.55;31.73;;
45964;Laerm;31671;48.092;11.842;2023-09-12T09:24:41;29.34;27.81;42.49;;
45964;Laerm;31671;48.092;11.842;2023-09-12T09:27:06;29.06;27.67;35.79;;
45964;Laerm;31671;48.092;11.842;2023-09-12T09:29:32;28.95;27.45;30.84;;
45964;Laerm;31671;48.092;11.842;2023-09-12T09:32:10;29.23;27.74;43.93;;
45964;Laerm;31671;48.092;11.842;2023-09-12T09:34:41;28.95;27.72;33.03;;
45964;Laerm;31671;48.092;11.842;2023-09-12T09:37:07;28.94;27.36;32.92;;
45964;Laerm;31671;48.092;11.842;2023-09-12T09:39:33;28.94;27.76;30.55;;
45964;Laerm;31671;48.092;11.842;2023-09-12T09:42:00;29.16;27.78;32.63;;
45964;Laerm;31671;48.092;11.842;2023-09-12T09:44:26;28.93;27.47;36.44;;
45964;Laerm;31671;48.092;11.842;2023-09-12T09:46:55;29.08;27.50;37.87;;
45964;Laerm;31671;48.092;11.842;2023-09-12T09:49:21;29.31;27.63;36.31;;
45964;Laerm;31671;48.092;11.842;2023-09-12T09:51:47;30.26;27.63;47.71;;
45964;Laerm;31671;48.092;11.842;2023-09-12T09:54:13;29.42;27.72;37.54;;
45964;Laerm;31671;48.092;11.842;2023-09-12T09:56:46;28.94;27.43;33.18;;
45964;Laerm;31671;48.092;11.842;2023-09-12T09:59:15;29.04;27.62;39.35;;
45964;Laerm;31671;48.092;11.842;2023-09-12T10:01:41;31.31;27.80;45.84;;
45964;Laerm;31671;48.092;11.842;2023-09-12T10:04:08;29.21;27.51;43.32;;
45964;Laerm;31671;48.092;11.842;2023-09-12T10:06:35;28.96;27.72;37.81;;
45964;Laerm;31671;48.092;11.842;2023-09-12T10:09:01;29.02;27.75;38.99;;
45964;Laerm;31671;48.092;11.842;2023-09-12T10:11:31;29.14;27.45;41.57;;
45964;Laerm;31671;48.092;11.842;2023-09-12T10:13:57;29.30;27.60;44.19;;
45964;Laerm;31671;48.092;11.842;2023-09-12T10:16:25;31.66;27.63;54.41;;
45964;Laerm;31671;48.092;11.842;2023-09-12T10:21:39;29.33;27.74;42.98;;
45964;Laerm;31671;48.092;11.842;2023-09-12T10:24:09;30.19;27.78;45.01;;
45964;Laerm;31671;48.092;11.842;2023-09-12T10:26:35;30.40;27.75;49.22;;
45964;Laerm;31671;48.092;11.842;2023-09-12T10:29:01;29.30;27.73;39.09;;
45964;Laerm;31671;48.092;11.842;2023-09-12T10:31:27;28.95;27.45;31.45;;
45964;Laerm;31671;48.092;11.842;2023-09-12T10:33:54;29.07;27.72;36.97;;
45964;Laerm;31671;48.092;11.842;2023-09-12T10:36:20;29.17;27.71;39.74;;
45964;Laerm;31671;48.092;11.842;2023-09-12T10:38:47;29.35;27.44;40.38;;
45964;Laerm;31671;48.092;11.842;2023-09-12T10:41:13;29.32;27.52;37.38;;
45964;Laerm;31671;48.092;11.842;2023-09-12T10:43:39;31.93;27.51;50.36;;
45964;Laerm;31671;48.092;11.842;2023-09-12T10:46:05;31.11;27.78;47.76;;
45964;Laerm;31671;48.092;11.842;2023-09-12T10:48:31;29.45;27.69;47.77;;
45964;Laerm;31671;48.092;11.842;2023-09-12T10:51:00;29.69;27.75;48.14;;
45964;Laerm;31671;48.092;11.842;2023-09-12T10:53:26;31.64;27.77;50.51;;
45964;Laerm;31671;48.092;11.842;2023-09-12T10:55:59;30.25;27.28;48.05;;
45964;Laerm;31671;48.092;11.842;2023-09-12T10:58:25;31.14;27.79;50.74;;
45964;Laerm;31671;48.092;11.842;2023-09-12T11:01:35;29.09;27.66;36.26;;
45964;Laerm;31671;48.092;11.842;2023-09-12T11:03:36;29.05;27.67;36.51;;
45964;Laerm;31671;48.092;11.842;2023-09-12T11:06:02;29.02;27.80;34.10;;
45964;Laerm;31671;48.092;11.842;2023-09-12T11:08:35;29.70;27.79;46.06;;
45964;Laerm;31671;48.092;11.842;2023-09-12T11:11:16;29.56;27.71;34.08;;
45964;Laerm;31671;48.092;11.842;2023-09-12T11:13:42;33.93;28.26;52.68;;
45964;Laerm;31671;48.092;11.842;2023-09-12T11:16:12;31.08;27.97;42.76;;
45964;Laerm;31671;48.092;11.842;2023-09-12T11:21:32;30.48;28.00;45.04;;
45964;Laerm;31671;48.092;11.842;2023-09-12T11:23:57;30.21;27.70;38.55;;
45964;Laerm;31671;48.092;11.842;2023-09-12T11:26:23;29.11;27.74;39.64;;
45964;Laerm;31671;48.092;11.842;2023-09-12T11:28:49;28.94;27.71;37.06;;
45964;Laerm;31671;48.092;11.842;2023-09-12T11:31:24;29.34;27.65;48.38;;
45964;Laerm;31671;48.092;11.842;2023-09-12T11:33:50;29.01;27.54;33.42;;
45964;Laerm;31671;48.092;11.842;2023-09-12T11:36:15;29.01;27.48;38.12;;
45964;Laerm;31671;48.092;11.842;2023-09-12T11:38:44;29.89;27.59;44.57;;
45964;Laerm;31671;48.092;11.842;2023-09-12T11:41:14;29.41;27.65;44.96;;
45964;Laerm;31671;48.092;11.842;2023-09-12T11:43:39;29.35;27.86;36.68;;
45964;Laerm;31671;48.092;11.842;2023-09-12T11:46:06;29.33;27.84;38.28;;
45964;Laerm;31671;48.092;11.842;2023-09-12T11:48:32;29.21;27.93;33.36;;
45964;Laerm;31671;48.092;11.842;2023-09-12T11:50:57;29.75;28.03;42.04;;
45964;Laerm;31671;48.092;11.842;2023-09-12T11:53:24;29.42;27.88;37.73;;
45964;Laerm;31671;48.092;11.842;2023-09-12T11:55:50;30.12;28.03;44.53;;
45964;Laerm;31671;48.092;11.842;2023-09-12T11:58:17;30.14;28.12;45.23;;
45964;Laerm;31671;48.092;11.842;2023-09-12T12:00:49;30.12;28.17;44.53;;
45964;Laerm;31671;48.092;11.842;2023-09-12T12:03:16;29.35;28.05;37.25;;
45964;Laerm;31671;48.092;11.842;2023-09-12T12:05:41;29.34;27.92;41.11;;
45964;Laerm;31671;48.092;11.842;2023-09-12T12:08:08;29.74;28.06;42.88;;
45964;Laerm;31671;48.092;11.842;2023-09-12T12:10:34;29.34;28.01;35.81;;
45964;Laerm;31671;48.092;11.842;2023-09-12T12:12:59;29.44;27.95;41.24;;
45964;Laerm;31671;48.092;11.842;2023-09-12T12:15:27;29.91;28.16;41.39;;
45964;Laerm;31671;48.092;11.842;2023-09-12T12:17:55;29.65;28.11;43.71;;
45964;Laerm;31671;48.092;11.842;2023-09-12T12:20:21;33.18;27.84;51.44;;
45964;Laerm;31671;48.092;11.842;2023-09-12T12:22:47;33.14;27.63;53.94;;
45964;Laerm;31671;48.092;11.842;2023-09-12T12:25:13;29.04;27.65;36.47;;
45964;Laerm;31671;48.092;11.842;2023-09-12T12:27:39;29.38;27.43;42.60;;
45964;Laerm;31671;48.092;11.842;2023-09-12T12:30:06;29.06;27.54;35.19;;
45964;Laerm;31671;48.092;11.842;2023-09-12T12:32:32;32.38;27.85;51.51;;
45964;Laerm;31671;48.092;11.842;2023-09-12T12:34:58;29.60;27.72;42.46;;
45964;Laerm;31671;48.092;11.842;2023-09-12T12:37:27;35.14;27.70;51.24;;
45964;Laerm;31671;48.092;11.842;2023-09-12T12:39:53;29.17;27.53;38.86;;
45964;Laerm;31671;48.092;11.842;2023-09-12T12:42:19;34.15;27.83;53.07;;
45964;Laerm;31671;48.092;11.842;2023-09-12T12:44:45;31.08;27.54;50.75;;
45964;Laerm;31671;48.092;11.842;2023-09-12T12:47:10;29.27;27.64;39.02;;
45964;Laerm;31671;48.092;11.842;2023-09-12T12:49:37;30.88;27.55;49.26;;
45964;Laerm;31671;48.092;11.842;2023-09-12T12:52:03;38.65;27.69;59.93;;
45964;Laerm;31671;48.092;11.842;2023-09-12T12:54:31;29.56;27.70;42.65;;
45964;Laerm;31671;48.092;11.842;2023-09-12T12:56:56;29.28;27.58;42.15;;
45964;Laerm;31671;48.092;11.842;2023-09-12T12:59:22;29.18;27.83;38.42;;
45964;Laerm;31671;48.092;11.842;2023-09-12T13:01:48;29.99;27.78;44.01;;
45964;Laerm;31671;48.092;11.842;2023-09-12T13:04:14;29.00;27.63;38.19;;
45964;Laerm;31671;48.092;11.842;2023-09-12T13:06:39;28.94;27.71;36.24;;
45964;Laerm;31671;48.092;11.842;2023-09-12T13:09:05;31.24;27.65;49.26;;
45964;Laerm;31671;48.092;11.842;2023-09-12T13:11:31;35.64;27.54;55.26;;
45964;Laerm;31671;48.092;11.842;2023-09-12T13:13:57;29.24;27.66;40.24;;
45964;Laerm;31671;48.092;11.842;2023-09-12T13:16:22;29.31;27.67;37.67;;
45964;Laerm;31671;48.092;11.842;2023-09-12T13:18:48;32.47;27.85;51.40;;
45964;Laerm;31671;48.092;11.842;2023-09-12T13:21:14;29.33;27.59;39.69;;
45964;Laerm;31671;48.092;11.842;2023-09-12T13:23:39;29.91;27.74;45.86;;
45964;Laerm;31671;48.092;11.842;2023-09-12T13:26:06;29.13;27.60;36.41;;
45964;Laerm;31671;48.092;11.842;2023-09-12T13:28:32;30.05;27.31;49.77;;
45964;Laerm;31671;48.092;11.842;2023-09-12T13:30:58;29.03;27.58;42.56;;
45964;Laerm;31671;48.092;11.842;2023-09-12T13:33:24;28.95;27.50;35.03;;
45964;Laerm;31671;48.092;11.842;2023-09-12T13:35:49;39.38;27.51;57.52;;
45964;Laerm;31671;48.092;11.842;2023-09-12T13:38:16;37.28;28.00;56.59;;